Time;durP1;ratioP1;P1;durP2;ratioP2;P2;SDS_P1;SDS_P2;PMS_P1;PMS_P2;Temp;Humidity;BMP_temperature;BMP_pressure;BME280_temperature;BME280_humidity;BME280_pressure;Samples;Min_cycle;Max_cycle;Signal;HPM_P1;HPM_P2
2022/11/02 00:05:49;;;;;;;10.63;4.05;;;15.20;68.30;;;;;;20998509;28;20101;-57
2022/11/02 00:15:51;;;;;;;5.63;3.40;;;15.10;68.40;;;;;;20998433;28;20052;-55
2022/11/02 00:25:54;;;;;;;5.53;3.35;;;15.00;68.80;;;;;;20996431;28;20044;-56
2022/11/02 00:35:56;;;;;;;5.82;3.40;;;15.10;68.60;;;;;;20996489;28;20048;-56
2022/11/02 00:45:57;;;;;;;4.13;3.13;;;15.00;68.40;;;;;;21022572;28;20095;-56
2022/11/02 00:55:59;;;;;;;4.65;3.13;;;14.90;68.50;;;;;;21078269;28;20048;-56
2022/11/02 01:06:11;;;;;;;5.85;2.92;;;14.70;69.20;;;;;;21079046;28;20133;-56
2022/11/02 01:16:13;;;;;;;6.25;3.95;;;14.80;69.10;;;;;;21079170;28;20048;-56
2022/11/02 01:26:15;;;;;;;6.75;3.97;;;14.70;69.20;;;;;;21078338;28;20484;-58
2022/11/02 01:36:21;;;;;;;5.75;3.95;;;14.70;69.20;;;;;;21078217;28;20088;-55
2022/11/02 01:46:29;;;;;;;4.50;3.22;;;14.50;69.40;;;;;;21076998;28;20083;-62
2022/11/02 01:56:32;;;;;;;4.35;2.78;;;14.40;69.40;;;;;;21078437;28;20040;-58
2022/11/02 02:06:33;;;;;;;4.03;2.55;;;14.30;69.60;;;;;;21076180;28;20055;-56
2022/11/02 02:16:44;;;;;;;6.13;2.92;;;14.20;69.60;;;;;;21091313;28;20078;-56
2022/11/02 02:27:00;;;;;;;4.60;2.60;;;14.20;69.40;;;;;;21091322;28;20052;-54
2022/11/02 02:37:07;;;;;;;4.10;2.80;;;14.30;69.20;;;;;;21072799;28;20044;-60
2022/11/02 02:47:17;;;;;;;4.53;2.65;;;14.20;69.70;;;;;;21088978;28;20048;-60
2022/11/02 02:57:22;;;;;;;4.07;2.88;;;14.20;69.70;;;;;;21088713;28;20089;-61
2022/11/02 03:07:33;;;;;;;3.45;2.65;;;14.20;69.40;;;;;;21087384;28;20083;-59
2022/11/02 03:17:50;;;;;;;4.95;2.50;;;14.20;69.80;;;;;;21087426;28;20060;-56
2022/11/02 03:28:01;;;;;;;4.97;2.53;;;14.20;69.70;;;;;;21086071;28;20051;-61
2022/11/02 03:38:12;;;;;;;2.97;2.30;;;14.10;70.00;;;;;;21085608;28;20126;-59
2022/11/02 03:48:16;;;;;;;3.50;2.20;;;14.10;69.80;;;;;;21084184;28;20044;-59
2022/11/02 03:58:19;;;;;;;3.80;2.28;;;14.10;69.80;;;;;;21083814;28;20044;-61
2022/11/02 04:08:31;;;;;;;6.28;2.60;;;14.20;69.60;;;;;;21082945;28;20091;-59
2022/11/02 04:28:53;;;;;;;3.20;2.00;;;14.00;69.90;;;;;;21081434;28;20087;-60
2022/11/02 04:38:55;;;;;;;3.22;2.30;;;14.00;70.00;;;;;;21080451;28;20059;-60
2022/11/02 04:49:00;;;;;;;4.53;2.10;;;13.90;70.30;;;;;;21079176;28;20139;-56
2022/11/02 04:59:01;;;;;;;5.13;2.58;;;13.90;70.50;;;;;;21079112;28;20052;-56
2022/11/02 05:09:03;;;;;;;3.55;2.33;;;13.80;70.70;;;;;;21079601;28;20055;-60
2022/11/02 05:19:05;;;;;;;3.58;2.30;;;13.80;70.90;;;;;;21078695;28;20051;-58
2022/11/02 05:29:06;;;;;;;3.60;2.55;;;13.80;70.80;;;;;;21078090;28;20529;-56
2022/11/02 05:39:22;;;;;;;4.18;2.45;;;13.80;70.90;;;;;;20820094;28;20498;-56
2022/11/02 05:49:23;;;;;;;3.90;2.70;;;13.80;70.80;;;;;;20832021;28;20092;-62
2022/11/02 05:59:24;;;;;;;4.38;2.63;;;13.70;71.10;;;;;;20835529;28;20057;-57
2022/11/02 06:09:24;;;;;;;7.18;3.25;;;13.70;71.00;;;;;;20878434;28;20097;-58
2022/11/02 06:19:26;;;;;;;5.00;2.70;;;13.70;71.20;;;;;;21092120;28;20500;-56
2022/11/02 06:29:28;;;;;;;3.92;2.50;;;13.70;71.10;;;;;;21090708;28;20405;-60
2022/11/02 06:39:30;;;;;;;5.97;2.88;;;13.60;71.00;;;;;;21090081;28;20048;-58
2022/11/02 06:49:31;;;;;;;4.47;2.40;;;13.50;71.30;;;;;;21088962;28;20134;-60
2022/11/02 06:59:33;;;;;;;4.60;2.42;;;13.30;71.80;;;;;;21088030;28;20066;-56
2022/11/02 07:09:36;;;;;;;6.25;3.53;;;13.40;71.50;;;;;;21087786;28;20055;-62
2022/11/02 07:19:38;;;;;;;4.72;2.67;;;13.40;71.40;;;;;;21087613;28;20055;-55
2022/11/02 07:29:40;;;;;;;5.45;3.22;;;13.40;71.30;;;;;;21085912;28;20511;-60
2022/11/02 07:39:42;;;;;;;8.95;4.70;;;13.40;71.20;;;;;;21085930;28;20043;-63
2022/11/02 07:49:43;;;;;;;5.85;3.50;;;13.40;71.30;;;;;;21085735;28;20488;-58
2022/11/02 07:59:45;;;;;;;14.52;3.95;;;13.60;70.90;;;;;;21083790;28;20044;-54
2022/11/02 08:09:46;;;;;;;8.68;3.80;;;13.70;70.70;;;;;;21083065;28;20052;-57
2022/11/02 08:19:48;;;;;;;5.35;3.38;;;13.90;70.30;;;;;;21083249;28;20044;-60
2022/11/02 08:29:51;;;;;;;10.38;6.25;;;14.00;70.00;;;;;;21082568;28;20491;-62
2022/11/02 08:39:53;;;;;;;10.20;5.15;;;14.30;69.00;;;;;;21082572;28;20076;-60
2022/11/02 08:49:55;;;;;;;19.58;5.28;;;14.40;68.70;;;;;;21079555;28;20193;-63
2022/11/02 08:59:57;;;;;;;12.38;5.28;;;14.70;67.90;;;;;;21081171;28;20052;-61
2022/11/02 09:09:58;;;;;;;6.72;4.70;;;15.00;67.40;;;;;;21080201;28;20519;-59
2022/11/02 09:20:00;;;;;;;8.63;4.20;;;15.20;66.10;;;;;;21078800;28;20552;-58
2022/11/02 09:30:03;;;;;;;11.00;4.45;;;15.40;65.10;;;;;;21079015;28;20044;-60
2022/11/02 09:40:09;;;;;;;14.10;8.20;;;15.80;64.40;;;;;;21078111;28;20476;-59
2022/11/02 09:50:22;;;;;;;7.97;3.92;;;16.20;63.30;;;;;;21077335;28;20060;-58
2022/11/02 10:00:29;;;;;;;7.60;4.47;;;16.60;61.60;;;;;;21076934;28;20069;-59
2022/11/02 10:10:31;;;;;;;7.70;4.45;;;16.70;61.10;;;;;;21077185;28;20048;-58
2022/11/02 10:20:44;;;;;;;6.47;4.18;;;17.00;60.00;;;;;;21077534;28;20056;-55
2022/11/02 10:30:46;;;;;;;6.25;4.40;;;17.20;59.30;;;;;;21080689;28;20056;-57
2022/11/02 10:41:06;;;;;;;8.10;3.90;;;17.40;58.70;;;;;;21091196;28;20048;-59
2022/11/02 10:51:13;;;;;;;7.60;4.30;;;17.60;58.90;;;;;;21089352;28;20052;-62
2022/11/02 11:01:15;;;;;;;7.72;3.95;;;17.90;57.90;;;;;;21088896;28;20147;-61
2022/11/02 11:11:20;;;;;;;9.05;4.53;;;18.10;57.50;;;;;;21089233;28;20496;-59
2022/11/02 11:21:33;;;;;;;10.65;5.78;;;18.30;56.60;;;;;;21089053;28;20518;-63
2022/11/02 11:31:35;;;;;;;10.60;4.10;;;18.60;56.40;;;;;;21087527;28;20083;-58
2022/11/02 11:41:40;;;;;;;9.65;4.07;;;18.70;55.80;;;;;;21086377;28;20381;-58
2022/11/02 11:51:43;;;;;;;7.85;3.25;;;18.90;55.70;;;;;;21085076;28;20059;-59
2022/11/02 12:01:45;;;;;;;;;;;19.10;55.50;;;;;;21085008;28;20385;-58
2022/11/02 12:12:13;;;;;;;5.80;3.00;;;19.30;55.10;;;;;;21083793;28;19924;-57
2022/11/02 12:22:52;;;;;;;5.45;3.00;;;19.50;54.10;;;;;;21083218;28;20412;-63
2022/11/02 12:33:24;;;;;;;6.70;2.88;;;19.70;53.90;;;;;;20743092;28;20491;-58
2022/11/02 12:43:48;;;;;;;6.50;2.20;;;19.70;52.90;;;;;;20741483;28;20127;-57
2022/11/02 12:53:55;;;;;;;7.85;1.98;;;19.90;52.10;;;;;;20740016;28;20054;-62
2022/11/02 13:04:09;;;;;;;7.50;2.45;;;20.00;51.40;;;;;;20889757;28;20052;-62
2022/11/02 13:14:17;;;;;;;4.97;2.15;;;20.20;50.40;;;;;;21078903;28;20074;-59
2022/11/02 13:24:29;;;;;;;5.47;2.05;;;20.30;51.00;;;;;;21079378;28;20055;-61
2022/11/02 13:34:36;;;;;;;6.30;3.65;;;20.40;50.40;;;;;;21078700;28;20044;-59
2022/11/02 13:44:46;;;;;;;2.30;1.70;;;20.40;49.40;;;;;;21078284;28;20067;-57
2022/11/02 13:54:54;;;;;;;4.68;1.92;;;20.60;48.90;;;;;;21078322;28;20089;-59
2022/11/02 14:04:56;;;;;;;4.90;1.90;;;20.70;48.10;;;;;;21081090;28;20055;-63
2022/11/02 14:15:13;;;;;;;3.20;1.50;;;20.80;48.20;;;;;;21093297;28;20051;-61
2022/11/02 14:25:15;;;;;;;;;;;20.80;47.20;;;;;;21093766;28;20059;-64
2022/11/02 14:35:36;;;;;;;5.25;3.53;;;20.70;47.10;;;;;;21092251;28;19991;-62
2022/11/02 14:46:06;;;;;;;2.88;1.67;;;20.70;47.40;;;;;;21090520;28;20062;-63
2022/11/02 14:56:08;;;;;;;4.38;1.98;;;20.70;47.50;;;;;;21090314;28;20110;-59
2022/11/02 15:06:10;;;;;;;6.03;3.17;;;20.70;47.50;;;;;;21088578;28;20058;-58
2022/11/02 15:16:11;;;;;;;2.22;1.30;;;20.70;48.80;;;;;;21086224;28;20048;-57
2022/11/02 15:26:38;;;;;;;5.25;2.22;;;20.70;47.50;;;;;;21086950;28;20052;-62
2022/11/02 15:36:43;;;;;;;2.33;1.60;;;20.80;47.90;;;;;;21086173;28;20075;-63
2022/11/02 15:47:09;;;;;;;7.70;3.78;;;20.80;47.60;;;;;;21086069;28;20082;-62
2022/11/02 15:57:19;;;;;;;3.15;1.80;;;20.80;48.50;;;;;;21084461;28;20052;-60
2022/11/02 16:07:22;;;;;;;13.60;7.30;;;20.80;47.90;;;;;;21084506;28;20540;-60
2022/11/02 16:17:26;;;;;;;6.70;3.33;;;20.70;48.30;;;;;;21083873;28;20095;-59
2022/11/02 16:27:29;;;;;;;5.47;2.25;;;20.70;48.60;;;;;;21082297;28;20044;-62
2022/11/02 16:37:31;;;;;;;5.32;1.88;;;20.70;49.40;;;;;;21081626;28;20044;-59
2022/11/02 16:47:39;;;;;;;6.53;3.33;;;20.70;49.80;;;;;;21082413;28;20060;-61
2022/11/02 16:57:44;;;;;;;6.38;3.40;;;20.70;49.90;;;;;;21080537;28;20361;-69
2022/11/02 17:08:03;;;;;;;5.38;2.38;;;20.60;50.50;;;;;;21080980;28;20044;-61
2022/11/02 17:18:08;;;;;;;4.93;2.38;;;20.50;50.50;;;;;;21079956;28;20450;-62
2022/11/02 17:28:33;;;;;;;4.10;1.63;;;20.50;51.10;;;;;;21079242;28;20087;-63
2022/11/02 17:38:35;;;;;;;7.53;2.08;;;20.40;50.50;;;;;;20740438;28;20058;-64
2022/11/02 17:48:37;;;;;;;10.00;3.90;;;20.40;51.20;;;;;;20754951;28;20063;-58
2022/11/02 17:58:39;;;;;;;10.23;2.90;;;20.20;50.40;;;;;;20753972;28;20050;-57
2022/11/02 18:19:01;;;;;;;5.10;3.60;;;19.60;51.80;;;;;;21093632;28;20117;-58
2022/11/02 18:29:03;;;;;;;8.23;3.15;;;19.30;52.40;;;;;;21093329;28;20055;-57
2022/11/02 18:39:05;;;;;;;11.23;4.72;;;19.20;52.80;;;;;;21093534;28;20044;-57
2022/11/02 18:49:08;;;;;;;9.38;5.25;;;19.20;53.20;;;;;;21089669;28;20056;-54
2022/11/02 18:59:10;;;;;;;8.75;5.40;;;19.10;53.80;;;;;;21088707;28;20135;-57
2022/11/02 19:09:20;;;;;;;13.45;5.88;;;19.00;53.90;;;;;;21089325;28;20052;-57
2022/11/02 19:19:22;;;;;;;10.85;4.97;;;19.00;54.00;;;;;;21088093;28;20372;-58
2022/11/02 19:29:23;;;;;;;9.65;4.45;;;18.80;54.50;;;;;;21086578;28;20043;-58
2022/11/02 19:39:25;;;;;;;10.38;3.95;;;18.70;55.50;;;;;;21086970;28;20044;-55
2022/11/02 19:49:27;;;;;;;6.15;3.63;;;18.50;56.10;;;;;;21084520;28;20460;-57
2022/11/02 19:59:29;;;;;;;9.18;3.95;;;18.30;56.50;;;;;;21083932;28;20370;-56
2022/11/02 20:09:31;;;;;;;4.45;3.20;;;18.20;57.20;;;;;;21082960;28;20490;-57
2022/11/02 20:19:32;;;;;;;9.68;4.72;;;18.00;57.70;;;;;;21082506;28;20040;-56
2022/11/02 20:29:35;;;;;;;13.05;3.90;;;18.00;58.00;;;;;;21081743;28;20184;-59
2022/11/02 20:39:37;;;;;;;8.23;4.03;;;17.90;58.60;;;;;;21082059;28;20503;-56
2022/11/02 20:49:38;;;;;;;9.00;4.10;;;17.90;58.70;;;;;;21080833;28;20519;-59
2022/11/02 20:59:40;;;;;;;6.65;4.00;;;17.80;59.30;;;;;;21080517;28;20052;-57
2022/11/02 21:09:42;;;;;;;11.35;4.82;;;17.80;59.10;;;;;;21080185;28;20051;-59
2022/11/02 21:19:43;;;;;;;8.68;5.10;;;17.80;59.00;;;;;;21078393;28;20040;-56
2022/11/02 21:29:45;;;;;;;10.18;5.43;;;17.80;59.20;;;;;;21078376;28;20055;-57
2022/11/02 21:39:47;;;;;;;7.88;4.20;;;17.70;59.80;;;;;;21078376;28;20122;-57
2022/11/02 21:49:49;;;;;;;5.63;3.05;;;17.40;60.70;;;;;;21077208;28;20052;-58
2022/11/02 21:59:50;;;;;;;5.90;2.67;;;17.20;61.30;;;;;;21059528;28;20055;-56
2022/11/02 22:09:52;;;;;;;5.07;3.22;;;17.20;61.40;;;;;;21077553;28;20446;-61
2022/11/02 22:19:54;;;;;;;5.60;3.63;;;17.10;61.70;;;;;;21077949;28;20171;-55
2022/11/02 22:29:56;;;;;;;6.78;3.15;;;17.10;62.00;;;;;;21087177;28;20480;-56
2022/11/02 22:39:57;;;;;;;6.63;3.55;;;17.00;62.20;;;;;;21092802;28;20453;-60
2022/11/02 22:49:59;;;;;;;6.32;3.50;;;16.90;62.50;;;;;;21091280;28;20498;-58
2022/11/02 23:00:00;;;;;;;6.93;3.38;;;16.80;62.90;;;;;;21089590;28;20056;-57
2022/11/02 23:11:20;;;;;;;5.93;3.13;;;16.70;63.40;;;;;;21090363;28;20443;-56
2022/11/02 23:20:24;;;;;;;5.45;3.08;;;16.60;63.90;;;;;;21088044;28;20052;-59
2022/11/02 23:40:53;;;;;;;5.50;3.10;;;16.40;64.50;;;;;;21085703;28;20044;-60
